Time;durP1;ratioP1;P1;durP2;ratioP2;P2;SDS_P1;SDS_P2;PMS_P1;PMS_P2;Temp;Humidity;BMP_temperature;BMP_pressure;BME280_temperature;BME280_humidity;BME280_pressure;Samples;Min_cycle;Max_cycle;Signal;HPM_P1;HPM_P2
2023/02/01 00:02:14;;;;;;;8.48;1.80;;;;;;;;;;6343187;22;20199;-61
2023/02/01 00:04:40;;;;;;;6.63;1.75;;;;;;;;;;6342949;22;20588;-62
2023/02/01 00:07:06;;;;;;;9.32;1.73;;;;;;;;;;6344710;22;20537;-62
2023/02/01 00:09:32;;;;;;;12.52;2.28;;;;;;;;;;6343843;22;20227;-62
2023/02/01 00:12:01;;;;;;;6.80;1.80;;;;;;;;;;6343450;22;20207;-61
2023/02/01 00:14:27;;;;;;;18.33;3.20;;;;;;;;;;6341761;22;20139;-61
2023/02/01 00:16:53;;;;;;;8.57;2.10;;;;;;;;;;6341560;22;20421;-62
2023/02/01 00:19:19;;;;;;;12.02;2.28;;;;;;;;;;6341161;22;20157;-61
2023/02/01 00:21:45;;;;;;;6.53;1.90;;;;;;;;;;6341476;22;20181;-62
2023/02/01 00:24:12;;;;;;;12.00;2.63;;;;;;;;;;6341210;22;20157;-62
2023/02/01 00:26:39;;;;;;;11.60;2.05;;;;;;;;;;6341345;22;20233;-62
2023/02/01 00:29:07;;;;;;;11.20;2.35;;;;;;;;;;6340974;22;20162;-62
2023/02/01 00:31:33;;;;;;;10.13;2.35;;;;;;;;;;6341101;22;20153;-62
2023/02/01 00:33:59;;;;;;;13.32;2.70;;;;;;;;;;6340888;22;20146;-62
2023/02/01 00:36:25;;;;;;;7.50;1.65;;;;;;;;;;6341266;22;20165;-63
2023/02/01 00:38:51;;;;;;;12.50;2.65;;;;;;;;;;6341271;22;20191;-62
2023/02/01 00:41:18;;;;;;;9.40;2.50;;;;;;;;;;6342094;22;20150;-62
2023/02/01 00:43:44;;;;;;;12.80;2.78;;;;;;;;;;6343276;22;20142;-62
2023/02/01 00:46:11;;;;;;;13.95;2.00;;;;;;;;;;6343378;22;20142;-62
2023/02/01 00:48:37;;;;;;;14.85;2.28;;;;;;;;;;6342838;22;20138;-62
2023/02/01 00:51:05;;;;;;;12.50;2.80;;;;;;;;;;6343031;22;20138;-62
2023/02/01 00:53:31;;;;;;;16.00;2.47;;;;;;;;;;6342792;22;20153;-62
2023/02/01 00:55:57;;;;;;;8.75;2.35;;;;;;;;;;6342820;22;20162;-62
2023/02/01 00:58:26;;;;;;;15.77;3.00;;;;;;;;;;6342940;22;20143;-62
2023/02/01 01:01:06;;;;;;;12.93;1.83;;;;;;;;;;6342878;22;20134;-61
2023/02/01 01:03:33;;;;;;;12.00;2.40;;;;;;;;;;6344265;22;20441;-60
2023/02/01 01:05:59;;;;;;;9.52;1.75;;;;;;;;;;6343405;22;20154;-58
2023/02/01 01:08:25;;;;;;;11.95;1.95;;;;;;;;;;6342504;22;20518;-62
2023/02/01 01:10:51;;;;;;;8.13;1.77;;;;;;;;;;6367883;22;20484;-61
2023/02/01 01:13:17;;;;;;;9.25;1.98;;;;;;;;;;6342643;22;20138;-62
2023/02/01 01:15:43;;;;;;;7.78;1.73;;;;;;;;;;6343351;22;20609;-62
2023/02/01 01:18:09;;;;;;;8.10;1.77;;;;;;;;;;6366082;22;20437;-62
2023/02/01 01:20:36;;;;;;;11.45;2.20;;;;;;;;;;6365961;22;20161;-62
2023/02/01 01:23:03;;;;;;;5.35;1.30;;;;;;;;;;6363578;22;20278;-62
2023/02/01 01:25:29;;;;;;;14.02;2.88;;;;;;;;;;6357691;22;20553;-62
2023/02/01 01:27:55;;;;;;;9.75;1.65;;;;;;;;;;6358139;22;20157;-62
2023/02/01 01:30:21;;;;;;;9.23;2.17;;;;;;;;;;6352371;22;20594;-62
2023/02/01 01:32:47;;;;;;;8.25;1.40;;;;;;;;;;6352446;22;20213;-62
2023/02/01 01:35:13;;;;;;;11.95;2.17;;;;;;;;;;6347086;22;20142;-60
2023/02/01 01:37:39;;;;;;;13.50;2.20;;;;;;;;;;6342706;22;20223;-60
2023/02/01 01:40:05;;;;;;;8.65;1.90;;;;;;;;;;6342746;22;20172;-61
2023/02/01 01:42:36;;;;;;;10.73;2.13;;;;;;;;;;6343725;22;20545;-61
2023/02/01 01:45:05;;;;;;;8.13;1.55;;;;;;;;;;6348007;22;20169;-62
2023/02/01 01:47:35;;;;;;;6.53;1.70;;;;;;;;;;6347437;22;20217;-59
2023/02/01 01:50:01;;;;;;;11.63;2.13;;;;;;;;;;6342873;22;20170;-59
2023/02/01 01:52:27;;;;;;;8.93;2.30;;;;;;;;;;6341934;22;20407;-62
2023/02/01 01:54:53;;;;;;;10.80;2.00;;;;;;;;;;6342370;22;20191;-60
2023/02/01 01:57:26;;;;;;;12.68;2.47;;;;;;;;;;6342628;22;20508;-62
2023/02/01 01:59:55;;;;;;;12.98;2.40;;;;;;;;;;6367220;22;20622;-60
2023/02/01 02:02:21;;;;;;;11.27;2.25;;;;;;;;;;6342344;22;20150;-61
2023/02/01 02:04:48;;;;;;;10.57;1.88;;;;;;;;;;6342512;22;20153;-62
2023/02/01 02:07:16;;;;;;;9.85;1.88;;;;;;;;;;6342860;22;20146;-61
2023/02/01 02:09:42;;;;;;;11.70;2.63;;;;;;;;;;6342381;22;20196;-61
2023/02/01 02:12:09;;;;;;;11.48;2.50;;;;;;;;;;6342912;22;20525;-62
2023/02/01 02:14:35;;;;;;;11.43;2.47;;;;;;;;;;6341897;22;20455;-62
2023/02/01 02:17:04;;;;;;;14.10;2.65;;;;;;;;;;6342467;22;20142;-62
2023/02/01 02:19:42;;;;;;;12.35;3.38;;;;;;;;;;6341981;22;20154;-64
2023/02/01 02:22:28;;;;;;;12.98;2.70;;;;;;;;;;6342364;22;20153;-63
2023/02/01 02:25:18;;;;;;;13.07;2.05;;;;;;;;;;6342312;22;20203;-61
2023/02/01 02:27:52;;;;;;;5.68;1.40;;;;;;;;;;6325986;22;20156;-63
2023/02/01 02:30:37;;;;;;;5.63;1.05;;;;;;;;;;6342147;22;20154;-61
2023/02/01 02:33:21;;;;;;;5.70;1.13;;;;;;;;;;6342486;22;20219;-62
2023/02/01 02:35:50;;;;;;;2.80;0.88;;;;;;;;;;6342378;22;20195;-61
2023/02/01 02:38:31;;;;;;;4.05;0.80;;;;;;;;;;6341804;22;20158;-62
2023/02/01 02:41:12;;;;;;;4.82;1.08;;;;;;;;;;6342069;22;20192;-63
2023/02/01 02:49:34;;;;;;;5.30;1.05;;;;;;;;;;6341769;22;20173;-63
2023/02/01 02:54:51;;;;;;;7.10;1.15;;;;;;;;;;6342041;22;20137;-62
2023/02/01 03:05:44;;;;;;;2.53;0.50;;;;;;;;;;6341824;22;20145;-62
2023/02/01 03:08:14;;;;;;;4.25;0.28;;;;;;;;;;6342068;22;20222;-63
2023/02/01 03:10:48;;;;;;;4.57;0.75;;;;;;;;;;6341818;22;20173;-63
2023/02/01 03:13:20;;;;;;;5.47;0.70;;;;;;;;;;6342001;22;20199;-63
2023/02/01 03:16:02;;;;;;;8.27;1.00;;;;;;;;;;6341828;22;20156;-62
2023/02/01 03:18:37;;;;;;;6.63;1.25;;;;;;;;;;6342007;22;20138;-63
2023/02/01 03:21:06;;;;;;;9.55;1.85;;;;;;;;;;6341729;22;20126;-63
2023/02/01 03:23:34;;;;;;;6.78;1.88;;;;;;;;;;6341978;22;20439;-63
2023/02/01 03:26:02;;;;;;;9.38;1.65;;;;;;;;;;6341358;22;20545;-63
2023/02/01 03:28:30;;;;;;;10.35;1.90;;;;;;;;;;6341381;22;20563;-62
2023/02/01 03:30:56;;;;;;;12.35;1.98;;;;;;;;;;6341737;22;20146;-62
2023/02/01 03:33:23;;;;;;;12.88;2.30;;;;;;;;;;6342424;22;20420;-62
2023/02/01 03:35:58;;;;;;;13.32;2.13;;;;;;;;;;6342244;22;20146;-62
2023/02/01 03:38:37;;;;;;;15.23;2.80;;;;;;;;;;6342147;22;20206;-62
2023/02/01 03:41:10;;;;;;;10.75;2.45;;;;;;;;;;6341962;22;20444;-61
2023/02/01 03:43:41;;;;;;;15.27;2.42;;;;;;;;;;6343062;22;20168;-62
2023/02/01 03:46:09;;;;;;;15.65;3.08;;;;;;;;;;6342299;22;20142;-63
2023/02/01 03:48:36;;;;;;;13.77;2.30;;;;;;;;;;6341763;22;20218;-62
2023/02/01 03:51:04;;;;;;;8.52;3.05;;;;;;;;;;6341209;22;20565;-62
2023/02/01 03:53:30;;;;;;;10.45;2.47;;;;;;;;;;6341388;22;20557;-60
2023/02/01 03:55:57;;;;;;;14.45;3.13;;;;;;;;;;6341569;22;20561;-61
2023/02/01 03:58:23;;;;;;;16.63;3.17;;;;;;;;;;6341584;22;20143;-61
2023/02/01 04:00:54;;;;;;;19.00;3.33;;;;;;;;;;6341196;22;20576;-62
2023/02/01 04:03:21;;;;;;;17.85;3.25;;;;;;;;;;6341291;22;20569;-62
2023/02/01 04:05:47;;;;;;;13.40;3.40;;;;;;;;;;6341593;22;20153;-62
2023/02/01 04:08:13;;;;;;;15.43;2.83;;;;;;;;;;6366664;22;20154;-62
2023/02/01 04:10:39;;;;;;;20.05;3.67;;;;;;;;;;6341587;22;20230;-58
2023/02/01 04:13:06;;;;;;;22.08;3.15;;;;;;;;;;6341843;22;20161;-60
2023/02/01 04:15:33;;;;;;;14.30;2.75;;;;;;;;;;6341540;22;20142;-60
2023/02/01 04:17:59;;;;;;;17.38;3.40;;;;;;;;;;6341571;22;20538;-62
2023/02/01 04:20:25;;;;;;;16.13;3.28;;;;;;;;;;6341389;22;20138;-62
2023/02/01 04:22:51;;;;;;;16.00;3.63;;;;;;;;;;6341580;22;20605;-62
2023/02/01 04:25:17;;;;;;;20.73;4.03;;;;;;;;;;6341400;22;20457;-62
2023/02/01 04:27:43;;;;;;;24.00;3.00;;;;;;;;;;6342412;22;20185;-62
2023/02/01 04:30:09;;;;;;;17.33;3.58;;;;;;;;;;6340867;22;20283;-62
2023/02/01 04:32:36;;;;;;;19.30;3.88;;;;;;;;;;6341413;22;20146;-62
2023/02/01 04:35:02;;;;;;;18.60;3.22;;;;;;;;;;6341311;22;20156;-62
2023/02/01 04:37:28;;;;;;;15.50;2.55;;;;;;;;;;6340977;22;20507;-61
2023/02/01 04:39:54;;;;;;;21.15;3.30;;;;;;;;;;6352716;22;20229;-62
2023/02/01 04:42:21;;;;;;;16.45;3.35;;;;;;;;;;6346100;22;20168;-62
2023/02/01 04:44:47;;;;;;;17.55;3.50;;;;;;;;;;6340922;22;20620;-62
2023/02/01 04:47:14;;;;;;;20.88;3.67;;;;;;;;;;6341340;22;20192;-62
2023/02/01 04:49:40;;;;;;;19.88;3.40;;;;;;;;;;6341738;22;20170;-61
2023/02/01 04:52:06;;;;;;;16.92;3.40;;;;;;;;;;6341302;22;20204;-62
2023/02/01 04:54:32;;;;;;;14.98;3.05;;;;;;;;;;6341411;22;20135;-63
2023/02/01 04:56:58;;;;;;;15.65;2.90;;;;;;;;;;6340822;22;20138;-61
2023/02/01 04:59:24;;;;;;;17.33;3.63;;;;;;;;;;6340840;22;20225;-62
2023/02/01 05:01:50;;;;;;;16.15;2.88;;;;;;;;;;6340802;22;20203;-62
2023/02/01 05:04:20;;;;;;;18.48;3.78;;;;;;;;;;6341189;22;20185;-63
2023/02/01 05:06:46;;;;;;;21.40;3.63;;;;;;;;;;6341180;22;20126;-61
2023/02/01 05:09:12;;;;;;;15.60;3.53;;;;;;;;;;6340980;22;20177;-61
2023/02/01 05:14:23;;;;;;;16.73;4.22;;;;;;;;;;6341292;22;20137;-63
2023/02/01 05:16:49;;;;;;;12.48;3.28;;;;;;;;;;6341037;22;20143;-63
2023/02/01 05:19:15;;;;;;;18.60;4.15;;;;;;;;;;6340719;22;20157;-62
2023/02/01 05:21:41;;;;;;;17.17;3.35;;;;;;;;;;6341011;22;20221;-63
2023/02/01 05:24:19;;;;;;;16.48;3.05;;;;;;;;;;6341058;22;20225;-62
2023/02/01 05:26:45;;;;;;;12.75;3.25;;;;;;;;;;6341467;22;20126;-62
2023/02/01 05:29:12;;;;;;;18.13;3.28;;;;;;;;;;6342663;22;20185;-63
2023/02/01 05:31:38;;;;;;;13.48;3.17;;;;;;;;;;6342538;22;20142;-62
2023/02/01 05:34:04;;;;;;;18.15;3.40;;;;;;;;;;6342584;22;20147;-63
2023/02/01 05:36:30;;;;;;;17.15;3.38;;;;;;;;;;6345742;22;20166;-63
2023/02/01 05:38:57;;;;;;;17.90;3.03;;;;;;;;;;6366568;22;20138;-63
2023/02/01 05:41:23;;;;;;;15.25;3.28;;;;;;;;;;6366647;22;20138;-63
2023/02/01 05:43:48;;;;;;;13.77;2.90;;;;;;;;;;6362782;22;20260;-62
2023/02/01 05:46:15;;;;;;;9.68;3.08;;;;;;;;;;6353364;22;20205;-63
2023/02/01 05:48:41;;;;;;;17.73;3.28;;;;;;;;;;6354126;22;20150;-63
2023/02/01 05:51:07;;;;;;;13.20;3.20;;;;;;;;;;6351059;22;20612;-63
2023/02/01 05:53:33;;;;;;;18.95;3.90;;;;;;;;;;6351032;22;20522;-63
2023/02/01 05:55:59;;;;;;;10.68;2.63;;;;;;;;;;6345208;22;20274;-61
2023/02/01 05:58:25;;;;;;;12.63;2.22;;;;;;;;;;6342994;22;20138;-61
2023/02/01 06:00:51;;;;;;;8.45;2.15;;;;;;;;;;6342690;22;20146;-62
2023/02/01 06:03:17;;;;;;;12.80;2.17;;;;;;;;;;6342224;22;20168;-61
2023/02/01 06:05:46;;;;;;;12.13;1.95;;;;;;;;;;6342433;22;20214;-62
2023/02/01 06:08:12;;;;;;;8.90;1.95;;;;;;;;;;6342588;22;20157;-61
2023/02/01 06:10:38;;;;;;;8.10;1.92;;;;;;;;;;6341765;22;20212;-64
2023/02/01 06:13:04;;;;;;;12.60;2.72;;;;;;;;;;6342028;22;20145;-63
2023/02/01 06:15:31;;;;;;;5.25;1.75;;;;;;;;;;6342463;22;20142;-63
2023/02/01 06:17:57;;;;;;;8.57;1.95;;;;;;;;;;6342438;22;20408;-61
2023/02/01 06:20:23;;;;;;;11.18;1.70;;;;;;;;;;6342710;22;20156;-62
2023/02/01 06:22:49;;;;;;;4.47;1.40;;;;;;;;;;6342599;22;20225;-60
2023/02/01 06:25:16;;;;;;;10.25;1.70;;;;;;;;;;6342682;22;20146;-63
2023/02/01 06:27:44;;;;;;;11.68;2.03;;;;;;;;;;6342395;22;20234;-63
2023/02/01 06:30:13;;;;;;;11.60;2.13;;;;;;;;;;6342336;22;20249;-63
2023/02/01 06:32:40;;;;;;;6.47;1.80;;;;;;;;;;6341913;22;20207;-63
2023/02/01 06:35:07;;;;;;;8.32;1.80;;;;;;;;;;6342535;22;20142;-63
2023/02/01 06:37:33;;;;;;;5.90;1.20;;;;;;;;;;6342198;22;20481;-61
2023/02/01 06:39:59;;;;;;;5.72;1.45;;;;;;;;;;6341662;22;20509;-62
2023/02/01 06:42:25;;;;;;;4.03;1.20;;;;;;;;;;6342147;22;20142;-63
2023/02/01 06:44:51;;;;;;;8.00;1.70;;;;;;;;;;6341666;22;20438;-63
2023/02/01 06:47:17;;;;;;;3.95;1.25;;;;;;;;;;6341528;22;20156;-63
2023/02/01 06:49:43;;;;;;;3.15;1.17;;;;;;;;;;6342291;22;20224;-63
2023/02/01 06:52:09;;;;;;;5.25;1.38;;;;;;;;;;6342150;22;20481;-63
2023/02/01 06:54:37;;;;;;;6.50;1.27;;;;;;;;;;6341773;22;20169;-63
2023/02/01 06:57:03;;;;;;;6.13;1.10;;;;;;;;;;6341755;22;20138;-62
2023/02/01 06:59:29;;;;;;;6.00;0.98;;;;;;;;;;6342050;22;20183;-63
2023/02/01 07:01:55;;;;;;;5.32;1.13;;;;;;;;;;6342034;22;20217;-62
2023/02/01 07:04:21;;;;;;;4.07;1.38;;;;;;;;;;6343244;22;20142;-62
2023/02/01 07:06:47;;;;;;;3.20;0.73;;;;;;;;;;6341914;22;20150;-62
2023/02/01 07:09:13;;;;;;;6.15;1.02;;;;;;;;;;6342448;22;20166;-62
2023/02/01 07:11:43;;;;;;;2.53;0.80;;;;;;;;;;6342849;22;20240;-62
2023/02/01 07:14:09;;;;;;;4.70;0.88;;;;;;;;;;6342688;22;20138;-62
2023/02/01 07:16:35;;;;;;;2.05;0.77;;;;;;;;;;6342342;22;20459;-62
2023/02/01 07:19:01;;;;;;;3.28;0.90;;;;;;;;;;6341910;22;20195;-63
2023/02/01 07:21:27;;;;;;;2.05;0.70;;;;;;;;;;6342040;22;20157;-63
2023/02/01 07:23:54;;;;;;;2.25;0.70;;;;;;;;;;6341891;22;20219;-62
2023/02/01 07:26:20;;;;;;;4.60;1.10;;;;;;;;;;6341549;22;20153;-63
2023/02/01 07:28:46;;;;;;;3.25;1.10;;;;;;;;;;6341288;22;20252;-63
2023/02/01 07:31:15;;;;;;;2.95;1.02;;;;;;;;;;6341422;22;20564;-63
2023/02/01 07:33:41;;;;;;;2.55;1.00;;;;;;;;;;6341724;22;20552;-63
2023/02/01 07:36:08;;;;;;;5.75;1.20;;;;;;;;;;6341773;22;20142;-62
2023/02/01 07:38:34;;;;;;;4.40;0.98;;;;;;;;;;6341188;22;20259;-63
2023/02/01 07:41:00;;;;;;;4.53;0.90;;;;;;;;;;6341636;22;20543;-62
2023/02/01 07:43:27;;;;;;;5.80;0.85;;;;;;;;;;6341519;22;20150;-63
2023/02/01 07:45:53;;;;;;;5.43;1.15;;;;;;;;;;6341033;22;20174;-63
2023/02/01 07:48:20;;;;;;;8.18;1.50;;;;;;;;;;6341267;22;20146;-61
2023/02/01 07:50:46;;;;;;;5.32;1.15;;;;;;;;;;6341079;22;20589;-63
2023/02/01 07:53:12;;;;;;;6.82;1.20;;;;;;;;;;6341500;22;20173;-63
2023/02/01 07:55:38;;;;;;;11.60;1.45;;;;;;;;;;6341676;22;20149;-63
2023/02/01 07:58:05;;;;;;;4.10;1.27;;;;;;;;;;6341753;22;20146;-63
2023/02/01 08:03:16;;;;;;;2.60;1.00;;;;;;;;;;6341280;22;20553;-61
2023/02/01 08:05:42;;;;;;;6.88;1.10;;;;;;;;;;6341477;22;20142;-63
2023/02/01 08:08:08;;;;;;;6.43;1.40;;;;;;;;;;6340122;22;20435;-63
2023/02/01 08:10:34;;;;;;;6.35;1.10;;;;;;;;;;6341391;22;20166;-62
2023/02/01 08:13:01;;;;;;;6.72;1.35;;;;;;;;;;6340956;22;20466;-63
2023/02/01 08:15:27;;;;;;;2.97;1.00;;;;;;;;;;6341461;22;20178;-63
2023/02/01 08:17:58;;;;;;;7.35;1.33;;;;;;;;;;6366060;22;20199;-62
2023/02/01 08:20:25;;;;;;;9.93;1.92;;;;;;;;;;6341395;22;20565;-62
2023/02/01 08:22:51;;;;;;;4.10;1.20;;;;;;;;;;6341460;22;20145;-63
2023/02/01 08:25:17;;;;;;;2.85;1.20;;;;;;;;;;6341159;22;20571;-63
2023/02/01 08:27:43;;;;;;;9.38;1.52;;;;;;;;;;6340835;22;20146;-63
2023/02/01 08:30:10;;;;;;;3.58;0.85;;;;;;;;;;6341281;22;20509;-63
2023/02/01 08:32:36;;;;;;;8.30;1.55;;;;;;;;;;6341547;22;20146;-63
2023/02/01 08:35:02;;;;;;;5.43;1.40;;;;;;;;;;6341972;22;20241;-62
2023/02/01 08:37:28;;;;;;;6.88;1.17;;;;;;;;;;6340887;22;20179;-63
2023/02/01 08:39:54;;;;;;;8.88;1.50;;;;;;;;;;6341129;22;20221;-63
2023/02/01 08:45:05;;;;;;;6.22;1.13;;;;;;;;;;6341422;22;20141;-62
2023/02/01 08:47:31;;;;;;;5.97;1.50;;;;;;;;;;6340993;22;20553;-63
2023/02/01 08:49:57;;;;;;;8.10;1.65;;;;;;;;;;6341031;22;20169;-63
2023/02/01 08:52:23;;;;;;;9.48;1.48;;;;;;;;;;6340744;22;20200;-63
2023/02/01 08:54:49;;;;;;;7.60;1.42;;;;;;;;;;6341183;22;20406;-62
2023/02/01 08:57:15;;;;;;;10.32;2.05;;;;;;;;;;6341383;22;20142;-63
2023/02/01 08:59:43;;;;;;;8.45;1.85;;;;;;;;;;6340808;22;20143;-63
2023/02/01 09:02:12;;;;;;;10.93;2.33;;;;;;;;;;6341782;22;20156;-63
2023/02/01 09:04:40;;;;;;;6.72;1.77;;;;;;;;;;6343263;22;20229;-61
2023/02/01 09:07:06;;;;;;;14.20;2.25;;;;;;;;;;6343136;22;20189;-62
2023/02/01 09:09:32;;;;;;;8.68;2.17;;;;;;;;;;6342762;22;20169;-62
2023/02/01 09:11:58;;;;;;;7.60;1.90;;;;;;;;;;6342914;22;20138;-62
2023/02/01 09:14:24;;;;;;;10.52;2.17;;;;;;;;;;6342756;22;20564;-63
2023/02/01 09:16:51;;;;;;;13.90;2.22;;;;;;;;;;6343111;22;20156;-61
2023/02/01 09:19:17;;;;;;;6.05;2.10;;;;;;;;;;6342951;22;20158;-62
2023/02/01 09:21:43;;;;;;;13.55;2.10;;;;;;;;;;6342866;22;20430;-63
2023/02/01 09:24:12;;;;;;;14.63;2.40;;;;;;;;;;6342917;22;20172;-63
2023/02/01 09:26:38;;;;;;;7.10;2.15;;;;;;;;;;6342832;22;20440;-63
2023/02/01 09:29:09;;;;;;;10.15;2.45;;;;;;;;;;6342595;22;20170;-63
2023/02/01 09:31:35;;;;;;;11.55;2.10;;;;;;;;;;6343106;22;20477;-62
2023/02/01 09:34:01;;;;;;;9.40;2.00;;;;;;;;;;6342489;22;20142;-62
2023/02/01 09:36:28;;;;;;;11.90;2.53;;;;;;;;;;6342540;22;20142;-62
2023/02/01 09:38:54;;;;;;;12.88;2.42;;;;;;;;;;6342509;22;20122;-63
2023/02/01 09:41:38;;;;;;;8.40;2.22;;;;;;;;;;6343189;22;20143;-63
2023/02/01 09:44:07;;;;;;;9.60;2.25;;;;;;;;;;6342950;22;20145;-62
2023/02/01 09:46:34;;;;;;;16.33;2.90;;;;;;;;;;6342931;22;20142;-64
2023/02/01 09:49:20;;;;;;;15.70;2.47;;;;;;;;;;6353629;22;20139;-64
2023/02/01 09:51:49;;;;;;;10.93;1.90;;;;;;;;;;6362163;22;20142;-64
2023/02/01 09:54:16;;;;;;;5.60;0.90;;;;;;;;;;6358822;22;20138;-64
2023/02/01 09:56:45;;;;;;;1.85;0.65;;;;;;;;;;6354736;22;20146;-65
2023/02/01 09:59:21;;;;;;;3.83;0.50;;;;;;;;;;6354825;22;20142;-67
2023/02/01 10:01:47;;;;;;;2.53;0.60;;;;;;;;;;6345552;22;20126;-68
2023/02/01 10:04:15;;;;;;;3.33;0.60;;;;;;;;;;6344196;22;20213;-66
2023/02/01 10:06:59;;;;;;;2.78;0.50;;;;;;;;;;6343705;22;20157;-66
2023/02/01 10:09:42;;;;;;;2.38;0.60;;;;;;;;;;6342554;22;20176;-65
2023/02/01 10:12:26;;;;;;;4.47;0.70;;;;;;;;;;6342418;22;20129;-66
2023/02/01 10:14:59;;;;;;;2.83;0.82;;;;;;;;;;6341549;22;20231;-66
2023/02/01 10:17:45;;;;;;;3.63;1.00;;;;;;;;;;6342529;22;20142;-65
2023/02/01 10:20:18;;;;;;;6.50;1.30;;;;;;;;;;6342188;22;20149;-64
2023/02/01 10:22:49;;;;;;;6.15;1.50;;;;;;;;;;6342405;22;20197;-64
2023/02/01 10:25:15;;;;;;;8.07;1.55;;;;;;;;;;6342388;22;20145;-64
2023/02/01 10:27:41;;;;;;;6.25;1.42;;;;;;;;;;6342168;22;20150;-63
2023/02/01 10:30:16;;;;;;;4.72;1.23;;;;;;;;;;6341862;22;20460;-65
2023/02/01 10:32:42;;;;;;;11.80;2.03;;;;;;;;;;6342090;22;20126;-63
2023/02/01 10:35:44;;;;;;;10.77;1.90;;;;;;;;;;6342157;22;20148;-63
2023/02/01 10:38:27;;;;;;;13.90;2.00;;;;;;;;;;6217300;23;20242;-63
2023/02/01 10:40:55;;;;;;;12.13;2.30;;;;;;;;;;6217218;23;20145;-60
2023/02/01 10:43:21;;;;;;;8.70;2.30;;;;;;;;;;6192637;23;20156;-61
2023/02/01 10:45:47;;;;;;;9.25;2.50;;;;;;;;;;6217864;23;20149;-60
2023/02/01 10:48:13;;;;;;;13.27;2.15;;;;;;;;;;6217821;23;20165;-61
2023/02/01 10:50:45;;;;;;;14.52;2.47;;;;;;;;;;6217740;23;20199;-60
2023/02/01 10:53:10;;;;;;;9.55;1.65;;;;;;;;;;6217871;23;20147;-60
2023/02/01 10:55:53;;;;;;;7.07;1.60;;;;;;;;;;6217219;23;20149;-59
2023/02/01 10:58:27;;;;;;;10.23;1.40;;;;;;;;;;6217049;23;21154;-60
2023/02/01 11:01:03;;;;;;;7.85;1.52;;;;;;;;;;6216771;23;20132;-61
2023/02/01 11:04:04;;;;;;;8.57;2.45;;;;;;;;;;6217003;23;20202;-61
2023/02/01 11:06:38;;;;;;;10.27;1.95;;;;;;;;;;6127157;23;20579;-62
2023/02/01 11:09:10;;;;;;;7.15;1.48;;;;;;;;;;6127410;23;20197;-60
2023/02/01 11:11:48;;;;;;;6.15;1.65;;;;;;;;;;6171775;22;20152;-60
2023/02/01 11:14:19;;;;;;;9.10;2.10;;;;;;;;;;6278062;22;20503;-61
2023/02/01 11:16:49;;;;;;;10.23;1.98;;;;;;;;;;6277455;22;20132;-61
2023/02/01 11:19:17;;;;;;;10.73;2.35;;;;;;;;;;6277394;22;20159;-61
2023/02/01 11:21:46;;;;;;;11.90;2.22;;;;;;;;;;6277530;22;20256;-62
2023/02/01 11:24:21;;;;;;;13.88;2.53;;;;;;;;;;6278095;22;20158;-62
2023/02/01 11:26:47;;;;;;;10.98;1.85;;;;;;;;;;6277433;22;20143;-62
2023/02/01 11:29:17;;;;;;;9.52;2.05;;;;;;;;;;6277295;22;20167;-62
2023/02/01 11:31:43;;;;;;;14.00;2.47;;;;;;;;;;6277124;22;20140;-62
2023/02/01 11:34:14;;;;;;;9.70;2.17;;;;;;;;;;6277727;22;20223;-60
2023/02/01 11:36:40;;;;;;;10.38;2.55;;;;;;;;;;6276718;22;20198;-63
2023/02/01 11:39:15;;;;;;;9.80;2.28;;;;;;;;;;6278085;22;20139;-61
2023/02/01 11:41:57;;;;;;;9.85;2.17;;;;;;;;;;6341600;22;20152;-61
2023/02/01 11:44:29;;;;;;;11.25;3.25;;;;;;;;;;6341854;22;20165;-60
2023/02/01 11:46:55;;;;;;;11.52;2.33;;;;;;;;;;6342155;22;20228;-62
2023/02/01 11:49:25;;;;;;;9.57;1.98;;;;;;;;;;6341342;22;20223;-61
2023/02/01 11:52:09;;;;;;;13.65;2.38;;;;;;;;;;6341585;22;20139;-62
2023/02/01 11:54:38;;;;;;;12.93;2.17;;;;;;;;;;6341451;22;20153;-61
2023/02/01 11:57:13;;;;;;;10.50;1.92;;;;;;;;;;6341896;22;20142;-62
2023/02/01 11:59:54;;;;;;;6.18;1.63;;;;;;;;;;6341244;22;20243;-62
2023/02/01 12:02:21;;;;;;;12.00;1.85;;;;;;;;;;6341518;22;20441;-62
2023/02/01 12:05:08;;;;;;;10.57;2.22;;;;;;;;;;6341734;22;20156;-61
2023/02/01 12:07:50;;;;;;;9.50;1.85;;;;;;;;;;6341561;22;20442;-61
2023/02/01 12:10:22;;;;;;;8.82;2.03;;;;;;;;;;6341613;22;20169;-61
2023/02/01 12:13:08;;;;;;;9.43;2.10;;;;;;;;;;6341996;22;20153;-59
2023/02/01 12:15:52;;;;;;;6.50;1.30;;;;;;;;;;6341145;22;20423;-58
2023/02/01 12:18:36;;;;;;;7.72;1.40;;;;;;;;;;6341954;22;20130;-60
2023/02/01 12:21:21;;;;;;;6.85;1.40;;;;;;;;;;6341509;22;20550;-60
2023/02/01 12:23:58;;;;;;;4.63;1.38;;;;;;;;;;6341134;22;20583;-61
2023/02/01 12:26:37;;;;;;;5.15;1.05;;;;;;;;;;6341529;22;20126;-60
2023/02/01 12:29:15;;;;;;;4.85;1.38;;;;;;;;;;6342190;22;20146;-61
2023/02/01 12:32:00;;;;;;;9.70;1.95;;;;;;;;;;6341587;22;20178;-61
2023/02/01 12:34:39;;;;;;;5.43;1.42;;;;;;;;;;6342057;22;20153;-62
2023/02/01 12:37:23;;;;;;;12.68;1.55;;;;;;;;;;6341891;22;20211;-60
2023/02/01 12:40:07;;;;;;;9.63;1.90;;;;;;;;;;6368949;22;20184;-62
2023/02/01 12:42:40;;;;;;;9.00;2.05;;;;;;;;;;6343496;22;20210;-61
2023/02/01 12:45:18;;;;;;;7.07;1.63;;;;;;;;;;6343709;22;20165;-61
2023/02/01 12:47:50;;;;;;;11.40;1.80;;;;;;;;;;6343746;22;20195;-61
2023/02/01 12:50:16;;;;;;;15.50;2.53;;;;;;;;;;6344085;22;20554;-59
2023/02/01 12:52:48;;;;;;;10.63;1.83;;;;;;;;;;6343974;22;20152;-60
2023/02/01 12:55:14;;;;;;;9.15;1.67;;;;;;;;;;6343765;22;20139;-61
2023/02/01 12:57:43;;;;;;;12.23;2.50;;;;;;;;;;6343378;22;20142;-57
2023/02/01 13:00:32;;;;;;;11.75;2.20;;;;;;;;;;6343422;22;20142;-60
2023/02/01 13:03:04;;;;;;;11.82;2.53;;;;;;;;;;6343373;22;20134;-61
2023/02/01 13:05:49;;;;;;;8.93;2.47;;;;;;;;;;6343486;22;20212;-62
2023/02/01 13:08:18;;;;;;;5.53;1.60;;;;;;;;;;6343003;22;20126;-62
2023/02/01 13:10:47;;;;;;;8.05;1.90;;;;;;;;;;6343032;22;20162;-62
2023/02/01 13:13:19;;;;;;;7.32;1.83;;;;;;;;;;6342991;22;20134;-62
2023/02/01 13:15:52;;;;;;;10.25;1.73;;;;;;;;;;6342862;22;20149;-61
2023/02/01 13:18:20;;;;;;;7.47;1.88;;;;;;;;;;6343273;22;20549;-59
2023/02/01 13:20:48;;;;;;;9.30;2.08;;;;;;;;;;6343172;22;20152;-62
2023/02/01 13:23:24;;;;;;;8.73;1.95;;;;;;;;;;6342991;22;20146;-62
2023/02/01 13:25:51;;;;;;;11.43;2.30;;;;;;;;;;6343006;22;20180;-61
2023/02/01 13:28:20;;;;;;;6.40;1.60;;;;;;;;;;6343183;22;20153;-62
2023/02/01 13:31:01;;;;;;;8.15;1.40;;;;;;;;;;6342685;22;20174;-63
2023/02/01 13:33:38;;;;;;;1.65;0.50;;;;;;;;;;6343021;22;20465;-64
2023/02/01 13:36:20;;;;;;;1.20;0.30;;;;;;;;;;6342901;22;20130;-65
2023/02/01 13:39:04;;;;;;;0.45;0.15;;;;;;;;;;6342823;22;20141;-63
2023/02/01 13:41:40;;;;;;;0.68;0.28;;;;;;;;;;6342301;22;20138;-64
2023/02/01 13:44:11;;;;;;;0.60;0.20;;;;;;;;;;6342571;22;20537;-62
2023/02/01 13:46:41;;;;;;;1.10;0.22;;;;;;;;;;6342481;22;20155;-63
2023/02/01 13:49:15;;;;;;;0.60;0.25;;;;;;;;;;6342673;22;20235;-63
2023/02/01 13:51:42;;;;;;;0.32;0.10;;;;;;;;;;6342916;22;20426;-62
2023/02/01 13:54:24;;;;;;;0.25;0.17;;;;;;;;;;6343035;22;20143;-62
2023/02/01 13:56:50;;;;;;;0.10;0.10;;;;;;;;;;6342717;22;20510;-62
2023/02/01 13:59:48;;;;;;;0.95;0.20;;;;;;;;;;6343622;22;20154;-64
2023/02/01 14:02:32;;;;;;;3.30;0.70;;;;;;;;;;6218441;23;20149;-62
2023/02/01 14:05:00;;;;;;;1.70;0.35;;;;;;;;;;6231046;23;20149;-63
2023/02/01 14:07:26;;;;;;;2.50;0.70;;;;;;;;;;6231262;23;20452;-62
2023/02/01 14:09:53;;;;;;;2.53;0.60;;;;;;;;;;6226091;23;20195;-62
2023/02/01 14:12:37;;;;;;;2.45;0.98;;;;;;;;;;6224415;23;20145;-60
2023/02/01 14:15:20;;;;;;;4.20;0.70;;;;;;;;;;6222464;23;20141;-62
2023/02/01 14:17:46;;;;;;;1.90;0.70;;;;;;;;;;6222623;23;20651;-61
2023/02/01 14:20:31;;;;;;;4.38;0.85;;;;;;;;;;6221052;23;20145;-60
2023/02/01 14:23:03;;;;;;;4.30;0.63;;;;;;;;;;6220417;23;20183;-61
2023/02/01 14:25:33;;;;;;;5.68;0.93;;;;;;;;;;6221815;23;20153;-60
2023/02/01 14:28:01;;;;;;;2.78;0.90;;;;;;;;;;6221395;23;20149;-60
2023/02/01 14:30:27;;;;;;;2.70;0.95;;;;;;;;;;6220076;23;20184;-61
2023/02/01 14:32:53;;;;;;;8.98;1.38;;;;;;;;;;6218694;23;20145;-61
2023/02/01 14:35:20;;;;;;;7.32;1.00;;;;;;;;;;6218681;23;20152;-61
2023/02/01 14:37:47;;;;;;;3.55;0.93;;;;;;;;;;6280285;22;20162;-60
2023/02/01 14:40:13;;;;;;;4.47;0.90;;;;;;;;;;6342767;22;20143;-61
2023/02/01 14:42:43;;;;;;;7.07;1.65;;;;;;;;;;6342686;22;20165;-59
2023/02/01 14:45:26;;;;;;;6.13;0.90;;;;;;;;;;6342350;22;20150;-60
2023/02/01 14:48:07;;;;;;;3.35;0.85;;;;;;;;;;6342707;22;20180;-60
2023/02/01 14:50:36;;;;;;;4.05;0.90;;;;;;;;;;6342011;22;20185;-60
2023/02/01 14:53:05;;;;;;;3.28;0.90;;;;;;;;;;6342027;22;20165;-59
2023/02/01 14:55:35;;;;;;;4.53;0.70;;;;;;;;;;6342370;22;20204;-60
2023/02/01 14:58:05;;;;;;;3.70;0.70;;;;;;;;;;6342076;22;20180;-61
2023/02/01 15:00:31;;;;;;;4.35;0.80;;;;;;;;;;6341573;22;20223;-60
2023/02/01 15:03:16;;;;;;;6.40;1.63;;;;;;;;;;6340402;22;20159;-61
2023/02/01 15:05:42;;;;;;;4.18;1.20;;;;;;;;;;6342706;22;20143;-61
2023/02/01 15:08:18;;;;;;;5.95;1.20;;;;;;;;;;6341971;22;20142;-61
2023/02/01 15:10:46;;;;;;;8.82;1.30;;;;;;;;;;6341981;22;20170;-62
2023/02/01 15:13:18;;;;;;;7.72;1.38;;;;;;;;;;6342187;22;20227;-60
2023/02/01 15:15:45;;;;;;;6.57;1.08;;;;;;;;;;6342037;22;20187;-61
2023/02/01 15:18:18;;;;;;;4.55;1.20;;;;;;;;;;6341770;22;20138;-61
2023/02/01 15:20:56;;;;;;;7.55;1.42;;;;;;;;;;6341913;22;20540;-62